Terminal Aerodrome Forecast
Issued by NWS Cleveland, OH

Home | Current Version | Previous Version | Graphics & Text | Print | Product List | Glossary Off
Versions: 1 2 3 4 5 6 7 8 9 10 11 12 13 14 15 16 17

994
FTUS41 KCLE 232107 AAB
TAFYNG
TAF AMD
KYNG 232107Z 2321/2418 23010KT P6SM -SHRA SCT008 OVC035
      TEMPO 2321/2323 5SM -SHRA OVC008
     FM232300 25008KT P6SM VCSH OVC015
     FM240300 31005KT P6SM OVC025
     FM240600 29005KT P6SM BKN035=

USA.gov is the U.S. government's official web portal to all federal, state and local government web resources and services.